Temp: 5.6°C   Baro: 1000.3mb
  Wind: 0.0mph   Dir: WSW (242°)
  Rain: 0.0mm (0.0mm/hr)
  Solar: 86W/m2  Hum: 90%
 
Bath Spa Weather Historical Data
Daily Summary for December 03, 2019 Units:  Both    English   Metric
Next Day »
Daily Weekly Monthly Yearly Custom
  High: Low: Average:
Temperature: 49.8 °F /  9.9 °C 34.5 °F /  1.4 °C 41.4 °F /  5.2 °C
Dew Point: 41.5 °F /  5.3 °C 32.2 °F /  0.1 °C 37 °F /  2.8 °C
Humidity: 93% 62% 85%
Wind Speed: 15mph /  24.1km/h - 0.9mph /  1.4km/h
Wind Gust: 15mph /  24.1km/h - -
Wind direction- - SW
Pressure: 30.5 in /  1031.4 hPa 30.2 in /  1022.6 hPa -
Precipitation: 0 in /  0.0 mm    
Historical Graphs
 
 
Tabular Data for December 03, 2019
Time Temperature Dew Point Pressure Wind direction Wind Speed Wind Gust Humidity Rainfall Rate (Hourly) solar
00:00 36.7 °F /  2.6 °C 34.5 °F /  1.4 °C 30.5in /  1031.4hPa Calm     92% 0in /  0.0mm 0.00 W/m2
00:05 36.7 °F /  2.6 °C 34.5 °F /  1.4 °C 30.5in /  1031.4hPa Calm     92% 0in /  0.0mm 0.00 W/m2
00:11 36.9 °F /  2.7 °C 34.7 °F /  1.5 °C 30.5in /  1031.4hPa Calm     92% 0in /  0.0mm 0.00 W/m2
00:15 36.9 °F /  2.7 °C 34.7 °F /  1.5 °C 30.5in /  1031.4hPa Calm     92% 0in /  0.0mm 0.00 W/m2
00:20 36.9 °F /  2.7 °C 34.7 °F /  1.5 °C 30.5in /  1031.4hPa Calm     92% 0in /  0.0mm 0.00 W/m2
00:25 37 °F /  2.8 °C 34.9 °F /  1.6 °C 30.5in /  1031.4hPa Calm     92% 0in /  0.0mm 0.00 W/m2
00:30 37 °F /  2.8 °C 34.9 °F /  1.6 °C 30.5in /  1031.4hPa Calm     92% 0in /  0.0mm 0.00 W/m2
00:35 37 °F /  2.8 °C 34.9 °F /  1.6 °C 30.4in /  1031.0hPa Calm     92% 0in /  0.0mm 0.00 W/m2
00:40 36.9 °F /  2.7 °C 34.7 °F /  1.5 °C 30.4in /  1031.0hPa Calm     92% 0in /  0.0mm 0.00 W/m2
00:45 37 °F /  2.8 °C 34.9 °F /  1.6 °C 30.4in /  1031.0hPa Calm     92% 0in /  0.0mm 0.00 W/m2
00:50 37 °F /  2.8 °C 34.9 °F /  1.6 °C 30.4in /  1031.0hPa Calm     92% 0in /  0.0mm 0.00 W/m2
00:55 37 °F /  2.8 °C 34.9 °F /  1.6 °C 30.4in /  1031.0hPa Calm     92% 0in /  0.0mm 0.00 W/m2
01:00 37 °F /  2.8 °C 34.9 °F /  1.6 °C 30.4in /  1031.0hPa Calm     92% 0in /  0.0mm 0.00 W/m2
01:05 37.2 °F /  2.9 °C 35.1 °F /  1.7 °C 30.4in /  1031.0hPa Calm     92% 0in /  0.0mm 0.00 W/m2
01:10 37.2 °F /  2.9 °C 35.4 °F /  1.9 °C 30.4in /  1031.0hPa Calm     93% 0in /  0.0mm 0.00 W/m2
01:15 37.2 °F /  2.9 °C 35.1 °F /  1.7 °C 30.4in /  1031.0hPa Calm     92% 0in /  0.0mm 0.00 W/m2
01:20 37.2 °F /  2.9 °C 35.1 °F /  1.7 °C 30.4in /  1031.0hPa Calm     92% 0in /  0.0mm 0.00 W/m2
01:25 37.4 °F /  3.0 °C 35.2 °F /  1.8 °C 30.4in /  1030.7hPa Calm     92% 0in /  0.0mm 0.00 W/m2
01:30 37.2 °F /  2.9 °C 35.1 °F /  1.7 °C 30.4in /  1030.7hPa Calm     92% 0in /  0.0mm 0.00 W/m2
01:35 37.4 °F /  3.0 °C 35.6 °F /  2.0 °C 30.4in /  1031.0hPa Calm     93% 0in /  0.0mm 0.00 W/m2
01:40 37.4 °F /  3.0 °C 35.2 °F /  1.8 °C 30.4in /  1031.0hPa Calm     92% 0in /  0.0mm 0.00 W/m2
01:45 37.4 °F /  3.0 °C 35.6 °F /  2.0 °C 30.4in /  1030.7hPa Calm     93% 0in /  0.0mm 0.00 W/m2
01:50 37.4 °F /  3.0 °C 35.2 °F /  1.8 °C 30.4in /  1031.0hPa Calm     92% 0in /  0.0mm 0.00 W/m2
01:55 37.4 °F /  3.0 °C 35.2 °F /  1.8 °C 30.4in /  1030.7hPa Calm     92% 0in /  0.0mm 0.00 W/m2
02:00 37.4 °F /  3.0 °C 35.2 °F /  1.8 °C 30.4in /  1030.7hPa Calm     92% 0in /  0.0mm 0.00 W/m2
02:05 37.6 °F /  3.1 °C 35.4 °F /  1.9 °C 30.4in /  1030.7hPa Calm     92% 0in /  0.0mm 0.00 W/m2
02:10 37.6 °F /  3.1 °C 35.4 °F /  1.9 °C 30.4in /  1030.7hPa Calm     92% 0in /  0.0mm 0.00 W/m2
02:15 37.8 °F /  3.2 °C 35.6 °F /  2.0 °C 30.4in /  1030.7hPa Calm     92% 0in /  0.0mm 0.00 W/m2
02:20 37.6 °F /  3.1 °C 35.4 °F /  1.9 °C 30.4in /  1030.4hPa Calm     92% 0in /  0.0mm 0.00 W/m2
02:25 37.4 °F /  3.0 °C 35.2 °F /  1.8 °C 30.4in /  1030.4hPa Calm     92% 0in /  0.0mm 0.00 W/m2
02:31 37.4 °F /  3.0 °C 35.2 °F /  1.8 °C 30.4in /  1030.4hPa Calm     92% 0in /  0.0mm 0.00 W/m2
02:35 37.4 °F /  3.0 °C 35.2 °F /  1.8 °C 30.4in /  1030.4hPa Calm     92% 0in /  0.0mm 0.00 W/m2
02:40 37.6 °F /  3.1 °C 35.4 °F /  1.9 °C 30.4in /  1030.0hPa Calm     92% 0in /  0.0mm 0.00 W/m2
02:45 37.6 °F /  3.1 °C 35.4 °F /  1.9 °C 30.4in /  1030.0hPa Calm     92% 0in /  0.0mm 0.00 W/m2
02:50 37.8 °F /  3.2 °C 35.6 °F /  2.0 °C 30.4in /  1030.0hPa Calm     92% 0in /  0.0mm 0.00 W/m2
02:55 37.8 °F /  3.2 °C 35.6 °F /  2.0 °C 30.4in /  1030.0hPa Calm     92% 0in /  0.0mm 0.00 W/m2
03:00 37.9 °F /  3.3 °C 36.1 °F /  2.3 °C 30.4in /  1030.0hPa Calm     93% 0in /  0.0mm 0.00 W/m2
03:05 37.9 °F /  3.3 °C 36.1 °F /  2.3 °C 30.4in /  1030.0hPa Calm     93% 0in /  0.0mm 0.00 W/m2
03:10 37.9 °F /  3.3 °C 36.1 °F /  2.3 °C 30.4in /  1030.0hPa Calm     93% 0in /  0.0mm 0.00 W/m2
03:15 37.9 °F /  3.3 °C 36.1 °F /  2.3 °C 30.4in /  1030.0hPa Calm     93% 0in /  0.0mm 0.00 W/m2
03:20 37.9 °F /  3.3 °C 36.1 °F /  2.3 °C 30.4in /  1030.0hPa Calm     93% 0in /  0.0mm 0.00 W/m2
03:25 37.9 °F /  3.3 °C 36.1 °F /  2.3 °C 30.4in /  1030.0hPa Calm     93% 0in /  0.0mm 0.00 W/m2
03:30 38.1 °F /  3.4 °C 36.3 °F /  2.4 °C 30.4in /  1030.0hPa Calm     93% 0in /  0.0mm 0.00 W/m2
03:35 38.1 °F /  3.4 °C 36.3 °F /  2.4 °C 30.4in /  1029.7hPa Calm     93% 0in /  0.0mm 0.00 W/m2
03:40 38.3 °F /  3.5 °C 36.5 °F /  2.5 °C 30.4in /  1029.7hPa Calm     93% 0in /  0.0mm 0.00 W/m2
03:45 38.3 °F /  3.5 °C 36.5 °F /  2.5 °C 30.4in /  1029.7hPa Calm     93% 0in /  0.0mm 0.00 W/m2
03:50 38.3 °F /  3.5 °C 36.1 °F /  2.3 °C 30.4in /  1029.7hPa Calm     92% 0in /  0.0mm 0.00 W/m2
03:55 38.3 °F /  3.5 °C 36.1 °F /  2.3 °C 30.4in /  1029.7hPa Calm     92% 0in /  0.0mm 0.00 W/m2
04:00 38.5 °F /  3.6 °C 36.7 °F /  2.6 °C 30.4in /  1029.7hPa Calm     93% 0in /  0.0mm 0.00 W/m2
04:05 38.5 °F /  3.6 °C 36.3 °F /  2.4 °C 30.4in /  1029.7hPa Calm     92% 0in /  0.0mm 0.00 W/m2
04:10 38.5 °F /  3.6 °C 36.3 °F /  2.4 °C 30.4in /  1029.7hPa Calm     92% 0in /  0.0mm 0.00 W/m2
04:15 38.7 °F /  3.7 °C 36.9 °F /  2.7 °C 30.4in /  1029.7hPa Calm     93% 0in /  0.0mm 0.00 W/m2
04:20 38.7 °F /  3.7 °C 36.9 °F /  2.7 °C 30.4in /  1029.3hPa Calm     93% 0in /  0.0mm 0.00 W/m2
04:25 38.7 °F /  3.7 °C 36.9 °F /  2.7 °C 30.4in /  1029.3hPa Calm     93% 0in /  0.0mm 0.00 W/m2
04:30 38.7 °F /  3.7 °C 36.9 °F /  2.7 °C 30.4in /  1029.3hPa Calm     93% 0in /  0.0mm 0.00 W/m2
04:35 38.7 °F /  3.7 °C 36.9 °F /  2.7 °C 30.4in /  1029.3hPa Calm     93% 0in /  0.0mm 0.00 W/m2
04:40 38.7 °F /  3.7 °C 36.9 °F /  2.7 °C 30.4in /  1029.3hPa Calm     93% 0in /  0.0mm 0.00 W/m2
04:45 38.7 °F /  3.7 °C 36.9 °F /  2.7 °C 30.4in /  1029.3hPa Calm     93% 0in /  0.0mm 0.00 W/m2
04:50 38.8 °F /  3.8 °C 37 °F /  2.8 °C 30.4in /  1029.0hPa Calm     93% 0in /  0.0mm 0.00 W/m2
04:55 38.8 °F /  3.8 °C 37 °F /  2.8 °C 30.4in /  1029.0hPa Calm     93% 0in /  0.0mm 0.00 W/m2
05:00 38.8 °F /  3.8 °C 37 °F /  2.8 °C 30.4in /  1029.0hPa Calm     93% 0in /  0.0mm 0.00 W/m2
05:05 38.8 °F /  3.8 °C 37 °F /  2.8 °C 30.4in /  1029.0hPa Calm     93% 0in /  0.0mm 0.00 W/m2
05:10 38.8 °F /  3.8 °C 37 °F /  2.8 °C 30.4in /  1029.0hPa Calm     93% 0in /  0.0mm 0.00 W/m2
05:15 38.8 °F /  3.8 °C 37 °F /  2.8 °C 30.4in /  1029.0hPa Calm     93% 0in /  0.0mm 0.00 W/m2
05:20 38.8 °F /  3.8 °C 37 °F /  2.8 °C 30.4in /  1028.7hPa Calm     93% 0in /  0.0mm 0.00 W/m2
05:25 39 °F /  3.9 °C 37.2 °F /  2.9 °C 30.4in /  1028.7hPa Calm     93% 0in /  0.0mm 0.00 W/m2
05:30 39.2 °F /  4.0 °C 37.4 °F /  3.0 °C 30.4in /  1028.7hPa Calm     93% 0in /  0.0mm 0.00 W/m2
05:35 39.2 °F /  4.0 °C 37.4 °F /  3.0 °C 30.4in /  1028.7hPa Calm     93% 0in /  0.0mm 0.00 W/m2
05:40 39.2 °F /  4.0 °C 37.4 °F /  3.0 °C 30.4in /  1029.0hPa Calm     93% 0in /  0.0mm 0.00 W/m2
05:45 39.2 °F /  4.0 °C 37.4 °F /  3.0 °C 30.4in /  1028.7hPa Calm     93% 0in /  0.0mm 0.00 W/m2
05:50 39.4 °F /  4.1 °C 37.6 °F /  3.1 °C 30.4in /  1028.7hPa Calm     93% 0in /  0.0mm 0.00 W/m2
05:55 39.4 °F /  4.1 °C 37.6 °F /  3.1 °C 30.4in /  1028.7hPa Calm     93% 0in /  0.0mm 0.00 W/m2
06:00 39.6 °F /  4.2 °C 37.8 °F /  3.2 °C 30.4in /  1028.7hPa Calm     93% 0in /  0.0mm 0.00 W/m2
06:05 39.6 °F /  4.2 °C 37.8 °F /  3.2 °C 30.4in /  1029.0hPa Calm     93% 0in /  0.0mm 0.00 W/m2
06:10 39.4 °F /  4.1 °C 37.6 °F /  3.1 °C 30.4in /  1029.0hPa Calm     93% 0in /  0.0mm 0.00 W/m2
06:15 39.6 °F /  4.2 °C 37.8 °F /  3.2 °C 30.4in /  1029.0hPa Calm     93% 0in /  0.0mm 0.00 W/m2
06:20 39.7 °F /  4.3 °C 37.9 °F /  3.3 °C 30.4in /  1029.0hPa Calm     93% 0in /  0.0mm 0.00 W/m2
06:25 39.7 °F /  4.3 °C 37.9 °F /  3.3 °C 30.4in /  1029.0hPa Calm     93% 0in /  0.0mm 0.00 W/m2
06:30 39.7 °F /  4.3 °C 37.9 °F /  3.3 °C 30.4in /  1029.0hPa Calm     93% 0in /  0.0mm 0.00 W/m2
06:35 39.7 °F /  4.3 °C 37.9 °F /  3.3 °C 30.4in /  1029.0hPa Calm     93% 0in /  0.0mm 0.00 W/m2
06:40 39.9 °F /  4.4 °C 38.1 °F /  3.4 °C 30.4in /  1028.7hPa Calm     93% 0in /  0.0mm 0.00 W/m2
06:45 39.9 °F /  4.4 °C 38.1 °F /  3.4 °C 30.4in /  1028.7hPa Calm     93% 0in /  0.0mm 0.00 W/m2
06:50 40.1 °F /  4.5 °C 38.3 °F /  3.5 °C 30.4in /  1028.7hPa Calm     93% 0in /  0.0mm 0.00 W/m2
06:55 39.9 °F /  4.4 °C 38.1 °F /  3.4 °C 30.4in /  1028.7hPa Calm     93% 0in /  0.0mm 0.00 W/m2
07:00 39.9 °F /  4.4 °C 38.1 °F /  3.4 °C 30.4in /  1029.0hPa Calm     93% 0in /  0.0mm 0.00 W/m2
07:05 39.9 °F /  4.4 °C 38.1 °F /  3.4 °C 30.4in /  1029.0hPa Calm     93% 0in /  0.0mm 0.00 W/m2
07:10 39.9 °F /  4.4 °C 38.1 °F /  3.4 °C 30.4in /  1029.0hPa Calm     93% 0in /  0.0mm 0.00 W/m2
07:16 39.9 °F /  4.4 °C 38.1 °F /  3.4 °C 30.4in /  1029.0hPa Calm     93% 0in /  0.0mm 0.00 W/m2
07:20 39.9 °F /  4.4 °C 38.1 °F /  3.4 °C 30.4in /  1029.0hPa Calm     93% 0in /  0.0mm 0.00 W/m2
07:25 39.9 °F /  4.4 °C 38.1 °F /  3.4 °C 30.4in /  1029.0hPa Calm     93% 0in /  0.0mm 0.00 W/m2
07:30 39.9 °F /  4.4 °C 38.1 °F /  3.4 °C 30.4in /  1029.0hPa Calm     93% 0in /  0.0mm 0.00 W/m2
07:35 39.9 °F /  4.4 °C 38.1 °F /  3.4 °C 30.4in /  1029.0hPa Calm     93% 0in /  0.0mm 0.00 W/m2
07:40 40.1 °F /  4.5 °C 38.3 °F /  3.5 °C 30.4in /  1029.0hPa Calm     93% 0in /  0.0mm 0.00 W/m2
07:45 39.9 °F /  4.4 °C 38.1 °F /  3.4 °C 30.4in /  1029.0hPa Calm     93% 0in /  0.0mm 0.00 W/m2
07:50 39.9 °F /  4.4 °C 38.1 °F /  3.4 °C 30.4in /  1029.0hPa Calm     93% 0in /  0.0mm 0.00 W/m2
07:55 39.9 °F /  4.4 °C 38.1 °F /  3.4 °C 30.4in /  1029.0hPa Calm     93% 0in /  0.0mm 0.00 W/m2
08:00 40.1 °F /  4.5 °C 38.3 °F /  3.5 °C 30.4in /  1029.0hPa West 0.9mph /  1.4km/h 1mph /  1.6km/h 93% 0in /  0.0mm 5.00 W/m2
08:05 40.1 °F /  4.5 °C 38.3 °F /  3.5 °C 30.4in /  1029.0hPa Calm   2mph /  3.2km/h 93% 0in /  0.0mm 5.00 W/m2
08:10 40.3 °F /  4.6 °C 38.5 °F /  3.6 °C 30.4in /  1029.0hPa West 0.9mph /  1.4km/h 2mph /  3.2km/h 93% 0in /  0.0mm 9.00 W/m2
08:15 40.5 °F /  4.7 °C 38.7 °F /  3.7 °C 30.4in /  1029.0hPa Calm   2mph /  3.2km/h 93% 0in /  0.0mm 12.00 W/m2
08:20 40.6 °F /  4.8 °C 38.8 °F /  3.8 °C 30.4in /  1029.0hPa Calm     93% 0in /  0.0mm 16.00 W/m2
08:25 40.6 °F /  4.8 °C 38.5 °F /  3.6 °C 30.4in /  1029.0hPa Calm     92% 0in /  0.0mm 18.00 W/m2
08:30 40.5 °F /  4.7 °C 38.3 °F /  3.5 °C 30.4in /  1029.0hPa Calm   1mph /  1.6km/h 92% 0in /  0.0mm 19.00 W/m2
08:35 40.6 °F /  4.8 °C 38.5 °F /  3.6 °C 30.4in /  1029.0hPa West 0.9mph /  1.4km/h 2mph /  3.2km/h 92% 0in /  0.0mm 16.00 W/m2
08:40 40.6 °F /  4.8 °C 38.5 °F /  3.6 °C 30.4in /  1029.0hPa West 2mph /  3.2km/h 3mph /  4.8km/h 92% 0in /  0.0mm 18.00 W/m2
08:45 40.8 °F /  4.9 °C 38.5 °F /  3.6 °C 30.4in /  1029.0hPa West 2mph /  3.2km/h 3mph /  4.8km/h 91% 0in /  0.0mm 21.00 W/m2
08:50 41 °F /  5.0 °C 38.3 °F /  3.5 °C 30.4in /  1029.0hPa Calm   2mph /  3.2km/h 90% 0in /  0.0mm 23.00 W/m2
08:55 40.8 °F /  4.9 °C 38.1 °F /  3.4 °C 30.4in /  1029.0hPa West 0.9mph /  1.4km/h 3mph /  4.8km/h 90% 0in /  0.0mm 32.00 W/m2
09:00 41 °F /  5.0 °C 37.9 °F /  3.3 °C 30.4in /  1029.0hPa West 2mph /  3.2km/h 2mph /  3.2km/h 89% 0in /  0.0mm 42.00 W/m2
09:05 41 °F /  5.0 °C 37.9 °F /  3.3 °C 30.4in /  1029.0hPa West 0.9mph /  1.4km/h 3mph /  4.8km/h 89% 0in /  0.0mm 51.00 W/m2
09:10 41.2 °F /  5.1 °C 37.9 °F /  3.3 °C 30.4in /  1029.0hPa West 0.9mph /  1.4km/h 2mph /  3.2km/h 88% 0in /  0.0mm 56.00 W/m2
09:15 41.2 °F /  5.1 °C 37.9 °F /  3.3 °C 30.4in /  1028.7hPa West 0.9mph /  1.4km/h 1mph /  1.6km/h 88% 0in /  0.0mm 56.00 W/m2
09:20 41.5 °F /  5.3 °C 37.9 °F /  3.3 °C 30.4in /  1028.7hPa Calm   1mph /  1.6km/h 87% 0in /  0.0mm 60.00 W/m2
09:25 41.7 °F /  5.4 °C 37.8 °F /  3.2 °C 30.4in /  1028.7hPa Calm     86% 0in /  0.0mm 60.00 W/m2
09:30 41.9 °F /  5.5 °C 37.8 °F /  3.2 °C 30.4in /  1028.7hPa West 2mph /  3.2km/h 2mph /  3.2km/h 85% 0in /  0.0mm 58.00 W/m2
09:35 41.9 °F /  5.5 °C 37.8 °F /  3.2 °C 30.4in /  1029.0hPa West 0.9mph /  1.4km/h 2mph /  3.2km/h 85% 0in /  0.0mm 56.00 W/m2
09:40 42.1 °F /  5.6 °C 37.6 °F /  3.1 °C 30.4in /  1028.7hPa Calm   1mph /  1.6km/h 84% 0in /  0.0mm 60.00 W/m2
09:45 42.3 °F /  5.7 °C 37.8 °F /  3.2 °C 30.4in /  1028.7hPa Calm   1mph /  1.6km/h 84% 0in /  0.0mm 74.00 W/m2
09:50 42.4 °F /  5.8 °C 37.6 °F /  3.1 °C 30.4in /  1028.7hPa Calm   2mph /  3.2km/h 83% 0in /  0.0mm 72.00 W/m2
09:55 42.8 °F /  6.0 °C 37.8 °F /  3.2 °C 30.4in /  1028.7hPa Calm     82% 0in /  0.0mm 67.00 W/m2
10:00 43 °F /  6.1 °C 37.6 °F /  3.1 °C 30.4in /  1028.7hPa WSW 0.9mph /  1.4km/h 3mph /  4.8km/h 81% 0in /  0.0mm 72.00 W/m2
10:05 43.3 °F /  6.3 °C 37.6 °F /  3.1 °C 30.4in /  1028.7hPa WSW 0.9mph /  1.4km/h 2mph /  3.2km/h 80% 0in /  0.0mm 81.00 W/m2
10:10 43.3 °F /  6.3 °C 37.6 °F /  3.1 °C 30.4in /  1028.7hPa Calm   1mph /  1.6km/h 80% 0in /  0.0mm 79.00 W/m2
10:15 43.5 °F /  6.4 °C 37.4 °F /  3.0 °C 30.4in /  1028.7hPa WSW 2mph /  3.2km/h 2mph /  3.2km/h 79% 0in /  0.0mm 97.00 W/m2
10:20 43.9 °F /  6.6 °C 37.8 °F /  3.2 °C 30.4in /  1028.7hPa Calm     79% 0in /  0.0mm 121.00 W/m2
10:25 44.1 °F /  6.7 °C 37.6 °F /  3.1 °C 30.4in /  1028.7hPa Calm     78% 0in /  0.0mm 125.00 W/m2
10:30 44.2 °F /  6.8 °C 37.8 °F /  3.2 °C 30.4in /  1028.7hPa Calm     78% 0in /  0.0mm 123.00 W/m2
10:35 44.8 °F /  7.1 °C 37.9 °F /  3.3 °C 30.4in /  1028.3hPa Calm     77% 0in /  0.0mm 120.00 W/m2
10:40 45 °F /  7.2 °C 38.1 °F /  3.4 °C 30.4in /  1028.3hPa Calm     77% 0in /  0.0mm 113.00 W/m2
10:45 45 °F /  7.2 °C 37.9 °F /  3.3 °C 30.4in /  1028.3hPa Calm     76% 0in /  0.0mm 107.00 W/m2
10:50 45 °F /  7.2 °C 38.1 °F /  3.4 °C 30.4in /  1028.3hPa Calm     77% 0in /  0.0mm 118.00 W/m2
10:55 45.3 °F /  7.4 °C 38.5 °F /  3.6 °C 30.4in /  1028.3hPa Calm     77% 0in /  0.0mm 128.00 W/m2
11:00 45.7 °F /  7.6 °C 38.8 °F /  3.8 °C 30.4in /  1028.0hPa Calm     77% 0in /  0.0mm 128.00 W/m2
11:05 45.9 °F /  7.7 °C 38.3 °F /  3.5 °C 30.4in /  1028.0hPa Calm   4mph /  6.4km/h 75% 0in /  0.0mm 123.00 W/m2
11:10 45.9 °F /  7.7 °C 38.1 °F /  3.4 °C 30.4in /  1028.0hPa SSW 2mph /  3.2km/h 6mph /  9.7km/h 74% 0in /  0.0mm 128.00 W/m2
11:15 46.4 °F /  8.0 °C 38.5 °F /  3.6 °C 30.4in /  1027.7hPa WSW 9mph /  14.5km/h 9mph /  14.5km/h 74% 0in /  0.0mm 123.00 W/m2
11:20 46 °F /  7.8 °C 37.9 °F /  3.3 °C 30.4in /  1027.7hPa WSW 6mph /  9.7km/h 7mph /  11.3km/h 73% 0in /  0.0mm 132.00 W/m2
11:25 46.2 °F /  7.9 °C 38.1 °F /  3.4 °C 30.4in /  1027.7hPa WSW 2.9mph /  4.7km/h 5mph /  8.0km/h 73% 0in /  0.0mm 146.00 W/m2
11:30 46.4 °F /  8.0 °C 37.9 °F /  3.3 °C 30.4in /  1027.7hPa WSW 2mph /  3.2km/h 7mph /  11.3km/h 72% 0in /  0.0mm 190.00 W/m2
11:35 46.9 °F /  8.3 °C 38.1 °F /  3.4 °C 30.3in /  1027.3hPa WSW 2.9mph /  4.7km/h 6mph /  9.7km/h 71% 0in /  0.0mm 285.00 W/m2
11:40 47.5 °F /  8.6 °C 38.1 °F /  3.4 °C 30.3in /  1027.3hPa WSW 9mph /  14.5km/h 9mph /  14.5km/h 70% 0in /  0.0mm 265.00 W/m2
11:45 47.8 °F /  8.8 °C 38.5 °F /  3.6 °C 30.3in /  1027.3hPa WSW 2.9mph /  4.7km/h 8mph /  12.9km/h 70% 0in /  0.0mm 274.00 W/m2
11:50 48 °F /  8.9 °C 38.3 °F /  3.5 °C 30.3in /  1027.3hPa WSW 4.9mph /  7.9km/h 9mph /  14.5km/h 69% 0in /  0.0mm 269.00 W/m2
11:55 48.2 °F /  9.0 °C 38.5 °F /  3.6 °C 30.3in /  1027.0hPa SW 6.9mph /  11.1km/h 11mph /  17.7km/h 69% 0in /  0.0mm 251.00 W/m2
12:00 48.6 °F /  9.2 °C 39.2 °F /  4.0 °C 30.3in /  1027.0hPa SW 6mph /  9.7km/h 8mph /  12.9km/h 70% 0in /  0.0mm 151.00 W/m2
12:05 48.4 °F /  9.1 °C 38.7 °F /  3.7 °C 30.3in /  1027.0hPa WSW 0.9mph /  1.4km/h 5mph /  8.0km/h 69% 0in /  0.0mm 160.00 W/m2
12:10 48.4 °F /  9.1 °C 37.6 °F /  3.1 °C 30.3in /  1026.6hPa WSW 6mph /  9.7km/h 10mph /  16.1km/h 66% 0in /  0.0mm 206.00 W/m2
12:15 48.6 °F /  9.2 °C 36.9 °F /  2.7 °C 30.3in /  1026.6hPa SW 8.1mph /  13.0km/h 9mph /  14.5km/h 64% 0in /  0.0mm 206.00 W/m2
12:20 48.6 °F /  9.2 °C 36.9 °F /  2.7 °C 30.3in /  1026.6hPa WSW 2mph /  3.2km/h 8mph /  12.9km/h 64% 0in /  0.0mm 179.00 W/m2
12:25 48.4 °F /  9.1 °C 36.7 °F /  2.6 °C 30.3in /  1026.6hPa WSW 4mph /  6.4km/h 7mph /  11.3km/h 64% 0in /  0.0mm 197.00 W/m2
12:30 48.6 °F /  9.2 °C 36.9 °F /  2.7 °C 30.3in /  1026.6hPa WSW 8.1mph /  13.0km/h 8mph /  12.9km/h 64% 0in /  0.0mm 146.00 W/m2
12:35 48.6 °F /  9.2 °C 36.9 °F /  2.7 °C 30.3in /  1026.3hPa WSW 2mph /  3.2km/h 5mph /  8.0km/h 64% 0in /  0.0mm 125.00 W/m2
12:40 48.6 °F /  9.2 °C 36.9 °F /  2.7 °C 30.3in /  1026.3hPa WSW 4.9mph /  7.9km/h 7mph /  11.3km/h 64% 0in /  0.0mm 172.00 W/m2
12:45 49.3 °F /  9.6 °C 37.9 °F /  3.3 °C 30.3in /  1026.3hPa WSW 2mph /  3.2km/h 3mph /  4.8km/h 65% 0in /  0.0mm 204.00 W/m2
12:50 49.5 °F /  9.7 °C 37.8 °F /  3.2 °C 30.3in /  1026.0hPa WSW 4mph /  6.4km/h 8mph /  12.9km/h 64% 0in /  0.0mm 230.00 W/m2
12:55 49.6 °F /  9.8 °C 37.2 °F /  2.9 °C 30.3in /  1026.0hPa SW 15mph /  24.1km/h 15mph /  24.1km/h 62% 0in /  0.0mm 216.00 W/m2
13:00 49.6 °F /  9.8 °C 38.3 °F /  3.5 °C 30.3in /  1026.0hPa WSW 6.9mph /  11.1km/h 7mph /  11.3km/h 65% 0in /  0.0mm 202.00 W/m2
13:05 49.6 °F /  9.8 °C 38.3 °F /  3.5 °C 30.3in /  1026.0hPa SSW 2.9mph /  4.7km/h 6mph /  9.7km/h 65% 0in /  0.0mm 193.00 W/m2
13:10 49.8 °F /  9.9 °C 38.5 °F /  3.6 °C 30.3in /  1025.6hPa SW 2mph /  3.2km/h 5mph /  8.0km/h 65% 0in /  0.0mm 185.00 W/m2
13:15 49.6 °F /  9.8 °C 38.3 °F /  3.5 °C 30.3in /  1025.6hPa SW 0.9mph /  1.4km/h 6mph /  9.7km/h 65% 0in /  0.0mm 181.00 W/m2
13:20 49.3 °F /  9.6 °C 38.5 °F /  3.6 °C 30.3in /  1025.6hPa SW 0.9mph /  1.4km/h 7mph /  11.3km/h 66% 0in /  0.0mm 185.00 W/m2
13:25 49.5 °F /  9.7 °C 38.7 °F /  3.7 °C 30.3in /  1025.6hPa WSW 8mph /  12.9km/h 8mph /  12.9km/h 66% 0in /  0.0mm 149.00 W/m2
13:30 48.9 °F /  9.4 °C 39.2 °F /  4.0 °C 30.3in /  1025.3hPa SW 8.1mph /  13.0km/h 8mph /  12.9km/h 69% 0in /  0.0mm 162.00 W/m2
13:35 48.6 °F /  9.2 °C 39.6 °F /  4.2 °C 30.3in /  1025.3hPa SW 4mph /  6.4km/h 6mph /  9.7km/h 71% 0in /  0.0mm 156.00 W/m2
13:40 49.3 °F /  9.6 °C 40.3 °F /  4.6 °C 30.3in /  1025.3hPa SW 0.9mph /  1.4km/h 3mph /  4.8km/h 71% 0in /  0.0mm 156.00 W/m2
13:45 49.5 °F /  9.7 °C 40.5 °F /  4.7 °C 30.3in /  1025.3hPa SW 2.9mph /  4.7km/h 5mph /  8.0km/h 71% 0in /  0.0mm 160.00 W/m2
13:50 49.3 °F /  9.6 °C 39.9 °F /  4.4 °C 30.3in /  1025.3hPa SSW 4mph /  6.4km/h 9mph /  14.5km/h 70% 0in /  0.0mm 185.00 W/m2
13:55 49.5 °F /  9.7 °C 40.8 °F /  4.9 °C 30.3in /  1025.3hPa SSW 6.9mph /  11.1km/h 7mph /  11.3km/h 72% 0in /  0.0mm 185.00 W/m2
14:00 49.6 °F /  9.8 °C 41 °F /  5.0 °C 30.3in /  1025.3hPa WSW 8.1mph /  13.0km/h 8mph /  12.9km/h 72% 0in /  0.0mm 171.00 W/m2
14:05 49.8 °F /  9.9 °C 41.5 °F /  5.3 °C 30.3in /  1025.3hPa WSW 4.9mph /  7.9km/h 6mph /  9.7km/h 73% 0in /  0.0mm 153.00 W/m2
14:10 49.5 °F /  9.7 °C 41.2 °F /  5.1 °C 30.3in /  1025.3hPa SW 6.9mph /  11.1km/h 7mph /  11.3km/h 73% 0in /  0.0mm 163.00 W/m2
14:15 49.3 °F /  9.6 °C 41.4 °F /  5.2 °C 30.3in /  1024.9hPa SW 8.1mph /  13.0km/h 8mph /  12.9km/h 74% 0in /  0.0mm 123.00 W/m2
14:20 49.1 °F /  9.5 °C 40.8 °F /  4.9 °C 30.3in /  1024.9hPa SSW 2.9mph /  4.7km/h 5mph /  8.0km/h 73% 0in /  0.0mm 79.00 W/m2
14:25 48.7 °F /  9.3 °C 40.5 °F /  4.7 °C 30.3in /  1024.9hPa SW 9mph /  14.5km/h 9mph /  14.5km/h 73% 0in /  0.0mm 67.00 W/m2
14:30 48.4 °F /  9.1 °C 40.1 °F /  4.5 °C 30.3in /  1024.9hPa SW 4mph /  6.4km/h 8mph /  12.9km/h 73% 0in /  0.0mm 60.00 W/m2
14:35 48.2 °F /  9.0 °C 40.3 °F /  4.6 °C 30.3in /  1024.9hPa SW 0.9mph /  1.4km/h 7mph /  11.3km/h 74% 0in /  0.0mm 79.00 W/m2
14:40 48.6 °F /  9.2 °C 40.6 °F /  4.8 °C 30.3in /  1024.9hPa SW 0.9mph /  1.4km/h 4mph /  6.4km/h 74% 0in /  0.0mm 95.00 W/m2
14:45 49.3 °F /  9.6 °C 41.4 °F /  5.2 °C 30.3in /  1024.9hPa Calm   1mph /  1.6km/h 74% 0in /  0.0mm 88.00 W/m2
14:50 49.8 °F /  9.9 °C 41.5 °F /  5.3 °C 30.3in /  1024.9hPa SW 0.9mph /  1.4km/h 3mph /  4.8km/h 73% 0in /  0.0mm 79.00 W/m2
14:55 49.5 °F /  9.7 °C 40.8 °F /  4.9 °C 30.3in /  1024.9hPa SW 0.9mph /  1.4km/h 4mph /  6.4km/h 72% 0in /  0.0mm 69.00 W/m2
15:00 49.5 °F /  9.7 °C 41.2 °F /  5.1 °C 30.3in /  1024.9hPa SW 4mph /  6.4km/h 6mph /  9.7km/h 73% 0in /  0.0mm 54.00 W/m2
15:05 49.3 °F /  9.6 °C 41 °F /  5.0 °C 30.3in /  1024.9hPa SW 2.9mph /  4.7km/h 4mph /  6.4km/h 73% 0in /  0.0mm 51.00 W/m2
15:10 49.3 °F /  9.6 °C 41 °F /  5.0 °C 30.3in /  1024.9hPa SW 4mph /  6.4km/h 7mph /  11.3km/h 73% 0in /  0.0mm 47.00 W/m2
15:15 49.1 °F /  9.5 °C 40.8 °F /  4.9 °C 30.3in /  1024.9hPa SW 4mph /  6.4km/h 6mph /  9.7km/h 73% 0in /  0.0mm 42.00 W/m2
15:20 49.1 °F /  9.5 °C 40.8 °F /  4.9 °C 30.3in /  1024.9hPa SW 2mph /  3.2km/h 6mph /  9.7km/h 73% 0in /  0.0mm 37.00 W/m2
15:25 49.1 °F /  9.5 °C 41.2 °F /  5.1 °C 30.3in /  1024.9hPa SW 2mph /  3.2km/h 6mph /  9.7km/h 74% 0in /  0.0mm 32.00 W/m2
15:30 48.9 °F /  9.4 °C 41 °F /  5.0 °C 30.3in /  1024.9hPa SW 4.9mph /  7.9km/h 6mph /  9.7km/h 74% 0in /  0.0mm 23.00 W/m2
15:35 48.9 °F /  9.4 °C 41 °F /  5.0 °C 30.3in /  1024.9hPa SW 2.9mph /  4.7km/h 5mph /  8.0km/h 74% 0in /  0.0mm 21.00 W/m2
15:40 48.6 °F /  9.2 °C 40.6 °F /  4.8 °C 30.3in /  1024.9hPa Calm   4mph /  6.4km/h 74% 0in /  0.0mm 16.00 W/m2
15:45 48.4 °F /  9.1 °C 40.5 °F /  4.7 °C 30.3in /  1024.9hPa SW 6mph /  9.7km/h 6mph /  9.7km/h 74% 0in /  0.0mm 12.00 W/m2
15:50 47.8 °F /  8.8 °C 39.9 °F /  4.4 °C 30.3in /  1024.9hPa Calm   1mph /  1.6km/h 74% 0in /  0.0mm 11.00 W/m2
15:55 47.8 °F /  8.8 °C 40.3 °F /  4.6 °C 30.3in /  1024.9hPa Calm   4mph /  6.4km/h 75% 0in /  0.0mm 9.00 W/m2
16:00 47.7 °F /  8.7 °C 40.1 °F /  4.5 °C 30.3in /  1024.9hPa Calm   2mph /  3.2km/h 75% 0in /  0.0mm 7.00 W/m2
16:05 47.5 °F /  8.6 °C 39.9 °F /  4.4 °C 30.3in /  1024.9hPa Calm     75% 0in /  0.0mm 0.00 W/m2
16:10 47.5 °F /  8.6 °C 39.9 °F /  4.4 °C 30.3in /  1024.9hPa Calm     75% 0in /  0.0mm 0.00 W/m2
16:15 47.3 °F /  8.5 °C 40.1 °F /  4.5 °C 30.3in /  1024.9hPa Calm     76% 0in /  0.0mm 0.00 W/m2
16:20 47.3 °F /  8.5 °C 40.1 °F /  4.5 °C 30.3in /  1024.9hPa Calm     76% 0in /  0.0mm 0.00 W/m2
16:25 47.1 °F /  8.4 °C 39.9 °F /  4.4 °C 30.3in /  1024.9hPa Calm     76% 0in /  0.0mm 0.00 W/m2
16:30 46.9 °F /  8.3 °C 39.7 °F /  4.3 °C 30.3in /  1024.9hPa Calm     76% 0in /  0.0mm 0.00 W/m2
16:35 46.6 °F /  8.1 °C 39.7 °F /  4.3 °C 30.3in /  1024.9hPa Calm     77% 0in /  0.0mm 0.00 W/m2
16:40 46 °F /  7.8 °C 39.2 °F /  4.0 °C 30.3in /  1024.6hPa Calm     77% 0in /  0.0mm 0.00 W/m2
16:45 45.3 °F /  7.4 °C 38.5 °F /  3.6 °C 30.3in /  1024.6hPa Calm     77% 0in /  0.0mm 0.00 W/m2
16:50 44.8 °F /  7.1 °C 37.9 °F /  3.3 °C 30.3in /  1024.6hPa Calm     77% 0in /  0.0mm 0.00 W/m2
16:55 44.2 °F /  6.8 °C 37.8 °F /  3.2 °C 30.3in /  1024.6hPa Calm     78% 0in /  0.0mm 0.00 W/m2
17:00 43.9 °F /  6.6 °C 37.4 °F /  3.0 °C 30.3in /  1024.3hPa Calm     78% 0in /  0.0mm 0.00 W/m2
17:05 43.5 °F /  6.4 °C 37 °F /  2.8 °C 30.3in /  1024.6hPa Calm     78% 0in /  0.0mm 0.00 W/m2
17:10 43.2 °F /  6.2 °C 36.7 °F /  2.6 °C 30.3in /  1024.3hPa Calm     78% 0in /  0.0mm 0.00 W/m2
17:15 42.6 °F /  5.9 °C 36.3 °F /  2.4 °C 30.3in /  1024.3hPa Calm     78% 0in /  0.0mm 0.00 W/m2
17:20 42.4 °F /  5.8 °C 36.3 °F /  2.4 °C 30.3in /  1024.3hPa Calm     79% 0in /  0.0mm 0.00 W/m2
17:25 41.9 °F /  5.5 °C 36.5 °F /  2.5 °C 30.3in /  1024.3hPa SW 1mph /  1.6km/h 1mph /  1.6km/h 81% 0in /  0.0mm 0.00 W/m2
17:30 41.7 °F /  5.4 °C 36.7 °F /  2.6 °C 30.3in /  1024.3hPa Calm   1mph /  1.6km/h 82% 0in /  0.0mm 0.00 W/m2
17:35 41.7 °F /  5.4 °C 36.7 °F /  2.6 °C 30.3in /  1024.6hPa Calm     82% 0in /  0.0mm 0.00 W/m2
17:40 41.5 °F /  5.3 °C 36.7 °F /  2.6 °C 30.3in /  1024.6hPa Calm     83% 0in /  0.0mm 0.00 W/m2
17:45 41.4 °F /  5.2 °C 36.5 °F /  2.5 °C 30.3in /  1024.6hPa Calm     83% 0in /  0.0mm 0.00 W/m2
17:50 41.4 °F /  5.2 °C 36.5 °F /  2.5 °C 30.3in /  1024.3hPa Calm     83% 0in /  0.0mm 0.00 W/m2
17:55 41.2 °F /  5.1 °C 36.7 °F /  2.6 °C 30.3in /  1024.3hPa Calm     84% 0in /  0.0mm 0.00 W/m2
18:00 41.2 °F /  5.1 °C 36.7 °F /  2.6 °C 30.3in /  1024.3hPa Calm     84% 0in /  0.0mm 0.00 W/m2
18:05 41.2 °F /  5.1 °C 36.7 °F /  2.6 °C 30.3in /  1024.3hPa Calm     84% 0in /  0.0mm 0.00 W/m2
18:10 41.2 °F /  5.1 °C 36.7 °F /  2.6 °C 30.3in /  1024.3hPa Calm     84% 0in /  0.0mm 0.00 W/m2
18:15 41 °F /  5.0 °C 36.9 °F /  2.7 °C 30.3in /  1024.3hPa Calm     85% 0in /  0.0mm 0.00 W/m2
18:20 41.2 °F /  5.1 °C 37 °F /  2.8 °C 30.3in /  1024.3hPa Calm     85% 0in /  0.0mm 0.00 W/m2
18:25 41 °F /  5.0 °C 36.9 °F /  2.7 °C 30.3in /  1024.3hPa Calm     85% 0in /  0.0mm 0.00 W/m2
18:30 40.8 °F /  4.9 °C 36.7 °F /  2.6 °C 30.3in /  1024.3hPa Calm     85% 0in /  0.0mm 0.00 W/m2
18:35 40.6 °F /  4.8 °C 36.5 °F /  2.5 °C 30.3in /  1024.3hPa Calm     85% 0in /  0.0mm 0.00 W/m2
18:40 40.6 °F /  4.8 °C 36.5 °F /  2.5 °C 30.3in /  1024.3hPa Calm     85% 0in /  0.0mm 0.00 W/m2
18:45 40.5 °F /  4.7 °C 36.7 °F /  2.6 °C 30.2in /  1023.9hPa Calm     86% 0in /  0.0mm 0.00 W/m2
18:50 40.5 °F /  4.7 °C 36.7 °F /  2.6 °C 30.3in /  1024.3hPa Calm     86% 0in /  0.0mm 0.00 W/m2
18:55 40.5 °F /  4.7 °C 36.7 °F /  2.6 °C 30.2in /  1023.9hPa Calm     86% 0in /  0.0mm 0.00 W/m2
19:00 40.5 °F /  4.7 °C 36.7 °F /  2.6 °C 30.3in /  1024.3hPa Calm     86% 0in /  0.0mm 0.00 W/m2
19:05 40.5 °F /  4.7 °C 36.7 °F /  2.6 °C 30.2in /  1023.9hPa Calm     86% 0in /  0.0mm 0.00 W/m2
19:10 40.3 °F /  4.6 °C 36.5 °F /  2.5 °C 30.2in /  1023.9hPa Calm     86% 0in /  0.0mm 0.00 W/m2
19:15 40.3 °F /  4.6 °C 36.7 °F /  2.6 °C 30.2in /  1023.9hPa Calm     87% 0in /  0.0mm 0.00 W/m2
19:20 40.3 °F /  4.6 °C 36.7 °F /  2.6 °C 30.2in /  1023.9hPa Calm     87% 0in /  0.0mm 0.00 W/m2
19:25 40.3 °F /  4.6 °C 36.7 °F /  2.6 °C 30.2in /  1023.9hPa Calm     87% 0in /  0.0mm 0.00 W/m2
19:30 40.3 °F /  4.6 °C 36.7 °F /  2.6 °C 30.2in /  1023.9hPa Calm     87% 0in /  0.0mm 0.00 W/m2
19:35 40.3 °F /  4.6 °C 36.7 °F /  2.6 °C 30.2in /  1023.9hPa Calm     87% 0in /  0.0mm 0.00 W/m2
19:40 40.1 °F /  4.5 °C 36.5 °F /  2.5 °C 30.2in /  1023.9hPa Calm     87% 0in /  0.0mm 0.00 W/m2
19:45 39.9 °F /  4.4 °C 36.3 °F /  2.4 °C 30.2in /  1023.9hPa Calm     87% 0in /  0.0mm 0.00 W/m2
19:50 39.7 °F /  4.3 °C 36.1 °F /  2.3 °C 30.2in /  1023.9hPa Calm     87% 0in /  0.0mm 0.00 W/m2
19:55 39.6 °F /  4.2 °C 36.3 °F /  2.4 °C 30.2in /  1023.6hPa Calm     88% 0in /  0.0mm 0.00 W/m2
20:00 39.4 °F /  4.1 °C 35.8 °F /  2.1 °C 30.2in /  1023.6hPa Calm     87% 0in /  0.0mm 0.00 W/m2
20:05 39.2 °F /  4.0 °C 36 °F /  2.2 °C 30.2in /  1023.6hPa Calm     88% 0in /  0.0mm 0.00 W/m2
20:10 39.2 °F /  4.0 °C 36 °F /  2.2 °C 30.2in /  1023.6hPa Calm     88% 0in /  0.0mm 0.00 W/m2
20:15 39 °F /  3.9 °C 35.8 °F /  2.1 °C 30.2in /  1023.6hPa Calm     88% 0in /  0.0mm 0.00 W/m2
20:20 38.7 °F /  3.7 °C 35.4 °F /  1.9 °C 30.2in /  1023.6hPa Calm     88% 0in /  0.0mm 0.00 W/m2
20:25 38.5 °F /  3.6 °C 35.2 °F /  1.8 °C 30.2in /  1023.2hPa Calm     88% 0in /  0.0mm 0.00 W/m2
20:30 38.5 °F /  3.6 °C 35.2 °F /  1.8 °C 30.2in /  1023.6hPa Calm     88% 0in /  0.0mm 0.00 W/m2
20:35 38.1 °F /  3.4 °C 34.9 °F /  1.6 °C 30.2in /  1023.2hPa Calm     88% 0in /  0.0mm 0.00 W/m2
20:40 38.1 °F /  3.4 °C 34.9 °F /  1.6 °C 30.2in /  1023.2hPa Calm     88% 0in /  0.0mm 0.00 W/m2
20:45 38.1 °F /  3.4 °C 35.2 °F /  1.8 °C 30.2in /  1023.2hPa Calm     89% 0in /  0.0mm 0.00 W/m2
20:50 37.9 °F /  3.3 °C 35.1 °F /  1.7 °C 30.2in /  1023.2hPa Calm     89% 0in /  0.0mm 0.00 W/m2
20:55 37.6 °F /  3.1 °C 34.7 °F /  1.5 °C 30.2in /  1023.2hPa Calm     89% 0in /  0.0mm 0.00 W/m2
21:00 37.6 °F /  3.1 °C 34.7 °F /  1.5 °C 30.2in /  1023.2hPa Calm     89% 0in /  0.0mm 0.00 W/m2
21:05 37.4 °F /  3.0 °C 34.5 °F /  1.4 °C 30.2in /  1023.2hPa Calm     89% 0in /  0.0mm 0.00 W/m2
21:10 37.4 °F /  3.0 °C 34.5 °F /  1.4 °C 30.2in /  1023.6hPa Calm     89% 0in /  0.0mm 0.00 W/m2
21:15 37.4 °F /  3.0 °C 34.5 °F /  1.4 °C 30.2in /  1023.2hPa Calm     89% 0in /  0.0mm 0.00 W/m2
21:20 37 °F /  2.8 °C 34.2 °F /  1.2 °C 30.2in /  1023.2hPa Calm     89% 0in /  0.0mm 0.00 W/m2
21:25 37 °F /  2.8 °C 34.2 °F /  1.2 °C 30.2in /  1023.2hPa Calm     89% 0in /  0.0mm 0.00 W/m2
21:30 36.9 °F /  2.7 °C 34 °F /  1.1 °C 30.2in /  1023.2hPa Calm     89% 0in /  0.0mm 0.00 W/m2
21:35 36.9 °F /  2.7 °C 34 °F /  1.1 °C 30.2in /  1023.2hPa Calm     89% 0in /  0.0mm 0.00 W/m2
21:40 36.9 °F /  2.7 °C 34 °F /  1.1 °C 30.2in /  1023.2hPa Calm     89% 0in /  0.0mm 0.00 W/m2
21:45 36.7 °F /  2.6 °C 34 °F /  1.1 °C 30.2in /  1023.2hPa Calm     90% 0in /  0.0mm 0.00 W/m2
21:50 36.7 °F /  2.6 °C 34 °F /  1.1 °C 30.2in /  1023.2hPa Calm     90% 0in /  0.0mm 0.00 W/m2
21:55 36.7 °F /  2.6 °C 34 °F /  1.1 °C 30.2in /  1023.2hPa Calm     90% 0in /  0.0mm 0.00 W/m2
22:00 36.7 °F /  2.6 °C 34 °F /  1.1 °C 30.2in /  1023.2hPa Calm     90% 0in /  0.0mm 0.00 W/m2
22:05 36.5 °F /  2.5 °C 33.8 °F /  1.0 °C 30.2in /  1023.2hPa Calm     90% 0in /  0.0mm 0.00 W/m2
22:10 36.3 °F /  2.4 °C 33.6 °F /  0.9 °C 30.2in /  1022.9hPa Calm     90% 0in /  0.0mm 0.00 W/m2
22:15 36.1 °F /  2.3 °C 33.4 °F /  0.8 °C 30.2in /  1022.9hPa Calm     90% 0in /  0.0mm 0.00 W/m2
22:21 36.1 °F /  2.3 °C 33.4 °F /  0.8 °C 30.2in /  1022.9hPa Calm     90% 0in /  0.0mm 0.00 W/m2
22:25 36.1 °F /  2.3 °C 33.4 °F /  0.8 °C 30.2in /  1022.9hPa Calm     90% 0in /  0.0mm 0.00 W/m2
22:30 36.1 °F /  2.3 °C 33.4 °F /  0.8 °C 30.2in /  1022.9hPa Calm     90% 0in /  0.0mm 0.00 W/m2
22:35 36 °F /  2.2 °C 33.3 °F /  0.7 °C 30.2in /  1022.9hPa Calm     90% 0in /  0.0mm 0.00 W/m2
22:41 35.8 °F /  2.1 °C 33.1 °F /  0.6 °C 30.2in /  1022.6hPa Calm     90% 0in /  0.0mm 0.00 W/m2
22:45 35.6 °F /  2.0 °C 32.9 °F /  0.5 °C 30.2in /  1022.6hPa Calm     90% 0in /  0.0mm 0.00 W/m2
22:50 35.4 °F /  1.9 °C 33.1 °F /  0.6 °C 30.2in /  1022.9hPa Calm     91% 0in /  0.0mm 0.00 W/m2
22:55 35.2 °F /  1.8 °C 32.5 °F /  0.3 °C 30.2in /  1022.9hPa Calm     90% 0in /  0.0mm 0.00 W/m2
23:00 35.2 °F /  1.8 °C 32.9 °F /  0.5 °C 30.2in /  1022.9hPa Calm     91% 0in /  0.0mm 0.00 W/m2
23:05 35.4 °F /  1.9 °C 33.1 °F /  0.6 °C 30.2in /  1022.9hPa Calm     91% 0in /  0.0mm 0.00 W/m2
23:10 35.4 °F /  1.9 °C 33.1 °F /  0.6 °C 30.2in /  1022.9hPa Calm     91% 0in /  0.0mm 0.00 W/m2
23:15 35.2 °F /  1.8 °C 32.9 °F /  0.5 °C 30.2in /  1022.9hPa Calm     91% 0in /  0.0mm 0.00 W/m2
23:20 35.1 °F /  1.7 °C 32.7 °F /  0.4 °C 30.2in /  1022.9hPa Calm     91% 0in /  0.0mm 0.00 W/m2
23:25 34.9 °F /  1.6 °C 32.5 °F /  0.3 °C 30.2in /  1022.9hPa Calm     91% 0in /  0.0mm 0.00 W/m2
23:30 34.9 °F /  1.6 °C 32.5 °F /  0.3 °C 30.2in /  1022.9hPa Calm     91% 0in /  0.0mm 0.00 W/m2
23:35 34.9 °F /  1.6 °C 32.5 °F /  0.3 °C 30.2in /  1022.9hPa Calm     91% 0in /  0.0mm 0.00 W/m2
23:40 34.9 °F /  1.6 °C 32.5 °F /  0.3 °C 30.2in /  1022.6hPa Calm     91% 0in /  0.0mm 0.00 W/m2
23:45 34.9 °F /  1.6 °C 32.5 °F /  0.3 °C 30.2in /  1022.6hPa Calm     91% 0in /  0.0mm 0.00 W/m2
23:50 34.7 °F /  1.5 °C 32.4 °F /  0.2 °C 30.2in /  1022.6hPa Calm     91% 0in /  0.0mm 0.00 W/m2
23:55 34.5 °F /  1.4 °C 32.2 °F /  0.1 °C 30.2in /  1022.6hPa Calm     91% 0in /  0.0mm 0.00 W/m2